Time;durP1;ratioP1;P1;durP2;ratioP2;P2;SDS_P1;SDS_P2;PMS_P1;PMS_P2;Temp;Humidity;BMP_temperature;BMP_pressure;BME280_temperature;BME280_humidity;BME280_pressure;Samples;Min_cycle;Max_cycle;Signal;HPM_P1;HPM_P2
2022/08/05 01:00:35;;;;;;;;;;;;;;;;;;;;;
2022/08/05 01:03:51;;;;;;;;;2.00;2.00;;;;;20.86;100.00;100077.88;4932321;28;73076;-96
2022/08/05 01:18:15;;;;;;;;;;;;;;;;;;;;;
2022/08/05 01:21:08;;;;;;;;;2.00;2.00;;;;;20.83;100.00;100112.56;4785816;29;72837;-96
2022/08/05 01:24:06;;;;;;;;;2.00;2.00;;;;;20.79;100.00;100111.72;4769193;29;44866;-96
2022/08/05 01:27:27;;;;;;;;;2.33;2.33;;;;;20.75;100.00;100081.50;4778249;29;44842;-96
2022/08/05 01:30:34;;;;;;;;;2.00;2.00;;;;;20.57;100.00;100050.53;4772507;29;47308;-96
2022/08/05 04:07:56;;;;;;;;;4.00;2.67;;;;;20.06;100.00;100009.97;4888824;29;45485;-96
2022/08/05 04:14:35;;;;;;;;;4.00;3.00;;;;;19.95;100.00;99994.06;4829606;29;46562;-96
2022/08/05 04:18:38;;;;;;;;;;;;;;;;;;;;;
2022/08/05 04:24:05;;;;;;;;;3.00;3.00;;;;;19.92;100.00;99990.53;4818542;29;44987;-96
2022/08/05 04:31:19;;;;;;;;;;;;;;;;;;;;;
2022/08/05 04:33:55;;;;;;;;;2.67;2.67;;;;;20.04;100.00;100029.53;4670195;30;44838;-96
2022/08/05 04:55:07;;;;;;;;;2.00;2.00;;;;;19.82;100.00;100041.16;5335471;22;46104;-96
2022/08/05 04:58:07;;;;;;;;;5.00;3.00;;;;;19.89;100.00;100050.03;5023200;28;44860;-96
2022/08/05 06:48:33;;;;;;;;;4.00;4.00;;;;;21.50;100.00;100160.06;5166975;22;45565;-90
2022/08/05 06:50:58;;;;;;;;;6.33;5.00;;;;;21.50;100.00;100145.81;4985931;28;46388;-93
2022/08/05 06:53:23;;;;;;;;;5.67;3.67;;;;;21.54;100.00;100155.59;5005879;28;45409;-93
2022/08/05 06:55:49;;;;;;;;;5.33;4.00;;;;;21.60;100.00;100162.63;5001001;28;45430;-91
2022/08/05 06:58:14;;;;;;;;;5.00;4.00;;;;;21.65;100.00;100167.03;5000065;28;54271;-91
2022/08/05 07:00:39;;;;;;;;;6.00;4.33;;;;;21.72;100.00;100186.56;5005976;28;47274;-92
2022/08/05 07:03:05;;;;;;;;;4.33;4.00;;;;;21.76;100.00;100185.63;5000808;28;46145;-93
2022/08/05 07:05:30;;;;;;;;;7.00;6.00;;;;;21.82;100.00;100194.47;5018250;28;45425;-94
2022/08/05 07:07:55;;;;;;;;;5.33;4.00;;;;;21.90;100.00;100192.66;4984818;28;45419;-92
2022/08/05 07:10:21;;;;;;;;;4.67;4.67;;;;;21.97;100.00;100193.44;4995843;28;58508;-91
2022/08/05 07:18:14;;;;;;;;;5.00;5.00;;;;;22.17;100.00;100203.00;4997417;28;45446;-93
2022/08/05 07:20:39;;;;;;;;;6.00;6.00;;;;;22.24;100.00;100199.38;4980171;28;47341;-89
2022/08/05 07:23:05;;;;;;;;;4.00;4.00;;;;;22.29;100.00;100202.00;4979218;28;45805;-95
2022/08/05 07:25:30;;;;;;;;;7.00;4.00;;;;;22.36;100.00;100202.81;4999053;28;45402;-93
2022/08/05 07:27:56;;;;;;;;;5.33;5.00;;;;;22.47;100.00;100218.72;4980339;28;45400;-93
2022/08/05 07:30:21;;;;;;;;;4.00;4.00;;;;;22.49;100.00;100225.81;5004143;28;45409;-91
2022/08/05 07:32:46;;;;;;;;;6.00;4.67;;;;;22.58;100.00;100229.25;5005150;28;45371;-91
2022/08/05 07:35:13;;;;;;;;;4.00;4.00;;;;;22.63;100.00;100225.63;5007151;28;59168;-91
2022/08/05 07:37:39;;;;;;;;;5.67;4.00;;;;;22.69;100.00;100242.47;4990791;28;45577;-95
2022/08/05 07:40:05;;;;;;;;;3.00;3.00;;;;;22.69;100.00;100227.34;4974853;28;47374;-92
2022/08/05 07:42:32;;;;;;;;;4.00;4.00;;;;;22.81;100.00;100252.16;4987749;28;45455;-91
2022/08/05 07:44:57;;;;;;;;;5.33;4.67;;;;;22.83;100.00;100234.31;4977365;28;45465;-91
2022/08/05 07:47:22;;;;;;;;;6.67;5.67;;;;;22.90;100.00;100240.47;4975532;28;45598;-89
2022/08/05 07:49:51;;;;;;;;;6.00;6.00;;;;;22.94;100.00;100248.41;4973729;28;46561;-91
2022/08/05 07:52:16;;;;;;;;;7.67;6.67;;;;;23.02;100.00;100252.75;4975808;28;45461;-90
2022/08/05 07:54:41;;;;;;;;;5.33;5.00;;;;;23.09;100.00;100266.03;4975144;28;45504;-90
2022/08/05 07:57:07;;;;;;;;;5.33;5.33;;;;;23.19;100.00;100282.84;4974765;28;45285;-90
2022/08/05 07:59:32;;;;;;;;;7.33;6.00;;;;;23.26;100.00;100296.16;4973131;28;46261;-91
2022/08/05 08:01:57;;;;;;;;;5.00;5.00;;;;;23.33;100.00;100309.41;4975667;28;45420;-88
2022/08/05 08:04:23;;;;;;;;;7.00;5.67;;;;;23.39;100.00;100320.94;4975266;28;45258;-92
2022/08/05 08:06:48;;;;;;;;;6.00;6.00;;;;;23.45;100.00;100320.88;4979041;28;45421;-90
2022/08/05 08:09:13;;;;;;;;;5.67;5.67;;;;;23.52;100.00;100332.38;4983529;28;45339;-90
2022/08/05 08:11:39;;;;;;;;;6.00;6.00;;;;;23.63;100.00;100350.97;4985847;28;45240;-92
2022/08/05 08:14:04;;;;;;;;;8.00;5.67;;;;;23.64;100.00;100345.59;4986036;28;45535;-93
2022/08/05 08:16:29;;;;;;;;;5.00;5.00;;;;;23.76;100.00;100351.66;4984831;28;59977;-92
2022/08/05 08:18:55;;;;;;;;;6.67;6.00;;;;;23.86;100.00;100349.72;4962861;28;46930;-92
2022/08/05 08:21:20;;;;;;;;;6.33;6.00;;;;;23.94;100.00;100363.00;4974978;28;45729;-91
2022/08/05 08:23:45;;;;;;;;;6.33;6.00;;;;;24.00;100.00;100360.19;4971170;28;45507;-93
2022/08/05 08:26:11;;;;;;;;;7.33;5.00;;;;;24.06;100.00;100388.69;4976144;28;45394;-94
2022/08/05 08:28:37;;;;;;;;;8.00;8.00;;;;;24.15;100.00;100395.69;4976372;28;47619;-93
2022/08/05 08:31:02;;;;;;;;;6.33;5.00;;;;;24.21;100.00;100385.75;4984840;28;48807;-91
2022/08/05 08:33:27;;;;;;;;;4.67;4.67;;;;;24.29;100.00;100376.72;4984028;28;45287;-96
2022/08/05 08:35:53;;;;;;;;;4.33;4.33;;;;;24.38;100.00;100375.69;4982603;28;47549;-96
2022/08/05 08:38:18;;;;;;;;;3.33;3.33;;;;;24.42;100.00;100380.94;4992901;28;47514;-95
2022/08/05 08:40:44;;;;;;;;;3.00;3.00;;;;;24.51;100.00;100424.59;4990575;28;56279;-95
2022/08/05 08:43:11;;;;;;;;;4.00;4.00;;;;;24.53;100.00;100431.69;4996695;28;45155;-94
2022/08/05 08:45:37;;;;;;;;;4.67;4.00;;;;;24.55;100.00;100424.53;4989179;28;44901;-95
2022/08/05 08:48:05;;;;;;;;;2.33;2.33;;;;;24.59;100.00;100411.03;4998970;28;47212;-95
2022/08/05 08:50:32;;;;;;;;;4.00;4.00;;;;;24.63;100.00;100427.06;4985175;28;45357;-95
2022/08/05 08:53:05;;;;;;;;;3.33;3.33;;;;;24.69;100.00;100434.09;4979060;28;45467;-94
2022/08/05 08:55:32;;;;;;;;;4.00;3.00;;;;;24.78;100.00;100423.19;4994600;28;45342;-95
2022/08/05 08:58:01;;;;;;;;;4.67;4.33;;;;;24.86;100.00;100441.84;4979970;28;45506;-96
2022/08/05 09:00:27;;;;;;;;;4.33;4.33;;;;;24.91;100.00;100454.28;4962061;28;45799;-93
2022/08/05 09:02:55;;;;;;;;;3.00;3.00;;;;;24.97;100.00;100472.97;4966068;28;45546;-93
2022/08/05 09:05:21;;;;;;;;;0.00;0.00;;;;;25.00;100.00;100486.28;4976680;28;46046;-95
2022/08/05 09:07:46;;;;;;;;;3.00;3.00;;;;;25.06;100.00;100485.34;4976294;28;48487;-92
2022/08/05 09:10:12;;;;;;;;;5.67;3.00;;;;;25.04;100.00;100488.06;4977803;28;45727;-94
2022/08/05 09:12:38;;;;;;;;;5.33;4.00;;;;;25.07;100.00;100488.00;4977526;28;45494;-94
2022/08/05 09:15:05;;;;;;;;;6.00;4.00;;;;;25.13;100.00;100495.03;4986831;28;45398;-93
2022/08/05 09:17:30;;;;;;;;;7.33;4.33;;;;;25.15;100.00;100501.25;4978511;28;48009;-94
2022/08/05 09:19:57;;;;;;;;;5.00;4.00;;;;;25.24;100.00;100502.00;4979980;28;45829;-94
2022/08/05 09:22:22;;;;;;;;;4.00;4.00;;;;;25.32;100.00;100519.72;4983158;28;45314;-95
2022/08/05 09:25:02;;;;;;;;;3.00;3.00;;;;;25.38;100.00;100509.78;4990298;28;45431;-94
2022/08/05 09:27:38;;;;;;;;;4.33;4.33;;;;;25.47;100.00;100504.19;4999998;28;48213;-95
2022/08/05 09:30:05;;;;;;;;;5.00;5.00;;;;;25.53;100.00;100524.69;4999427;28;45907;-95
2022/08/05 09:32:37;;;;;;;;;5.67;4.67;;;;;25.61;100.00;100506.63;4998435;28;45358;-96
2022/08/05 09:35:11;;;;;;;;;5.00;5.00;;;;;25.64;100.00;100495.78;5000035;28;45333;-95
2022/08/05 09:37:37;;;;;;;;;4.00;4.00;;;;;25.59;100.00;100504.88;4967160;28;47126;-93
2022/08/05 09:40:03;;;;;;;;;6.33;4.67;;;;;25.71;100.00;100511.78;4961290;28;45208;-96
2022/08/05 09:42:38;;;;;;;;;5.33;4.33;;;;;25.85;100.00;100515.06;4959943;28;45320;-96
2022/08/05 09:45:07;;;;;;;;;4.00;4.00;;;;;26.04;100.00;100517.34;4962378;28;45845;-95
2022/08/05 09:47:33;;;;;;;;;5.67;5.67;;;;;26.17;100.00;100514.34;4975362;28;46667;-95
2022/08/05 09:49:59;;;;;;;;;5.33;5.00;;;;;26.43;100.00;100508.38;4958785;28;46063;-93
2022/08/05 09:52:35;;;;;;;;;4.00;4.00;;;;;26.63;100.00;100530.31;4960343;28;45241;-90
2022/08/05 09:55:00;;;;;;;;;7.33;6.00;;;;;26.62;100.00;100534.78;4962957;28;45444;-91
2022/08/05 09:57:31;;;;;;;;;6.00;5.00;;;;;26.75;100.00;100540.75;4977896;28;45390;-92
2022/08/05 09:59:59;;;;;;;;;8.00;8.00;;;;;26.98;100.00;100524.94;4977437;28;45319;-91
2022/08/05 10:02:32;;;;;;;;;10.67;8.00;;;;;27.31;100.00;100521.34;4976999;28;45346;-89
2022/08/05 10:05:04;;;;;;;;;7.00;6.67;;;;;27.74;100.00;100543.44;4976763;28;45405;-90
2022/08/05 10:07:50;;;;;;;;;7.67;6.33;;;;;28.41;100.00;100536.91;4977747;28;45462;-91
2022/08/05 10:10:17;;;;;;;;;6.00;6.00;;;;;29.58;100.00;100531.09;4975785;28;45642;-95
2022/08/05 10:12:47;;;;;;;;;7.00;6.00;;;;;30.96;99.23;100531.00;4977519;28;45598;-95
2022/08/05 10:15:27;;;;;;;;;6.00;6.00;;;;;32.21;95.60;100541.53;4985612;28;45206;-94
2022/08/05 10:18:26;;;;;;;;;6.00;6.00;;;;;33.57;92.06;100557.28;4991545;28;45444;-94
2022/08/05 10:21:02;;;;;;;;;8.67;7.67;;;;;35.01;87.49;100572.75;4987495;28;45476;-95
2022/08/05 10:23:31;;;;;;;;;6.00;5.67;;;;;35.82;85.84;100574.16;4981714;28;45423;-93
2022/08/05 10:26:04;;;;;;;;;7.67;7.00;;;;;36.34;83.67;100733.75;4983941;28;45323;-96
2022/08/05 10:28:30;;;;;;;;;6.33;6.33;;;;;36.27;79.97;101237.81;4998597;28;46655;-96
2022/08/05 10:30:58;;;;;;;;;6.67;6.67;;;;;36.49;78.52;101284.94;5002857;23;46216;-96
2022/08/05 10:33:25;;;;;;;;;5.00;5.00;;;;;36.77;77.13;101330.72;4999282;28;45461;-96
2022/08/05 10:35:53;;;;;;;;;5.67;5.00;;;;;37.05;76.46;101349.25;4994212;28;45267;-96
2022/08/05 10:38:25;;;;;;;;;5.67;5.67;;;;;36.66;74.10;101380.53;4977642;28;47527;-94
2022/08/05 10:41:01;;;;;;;;;4.00;4.00;;;;;37.25;72.86;101421.06;4967140;28;45382;-94
2022/08/05 10:43:41;;;;;;;;;3.33;3.33;;;;;38.02;71.25;101444.00;4982923;28;45376;-96
2022/08/05 10:46:12;;;;;;;;;8.33;8.33;;;;;38.89;70.86;101456.94;4986005;28;45662;-96
2022/08/05 10:48:59;;;;;;;;;7.67;7.67;;;;;40.22;70.16;101464.63;4969389;28;47938;-96
2022/08/05 10:51:41;;;;;;;;;10.33;10.00;;;;;40.55;66.69;101503.56;4959413;28;45503;-95
2022/08/05 10:54:06;;;;;;;;;14.00;13.00;;;;;39.27;64.65;101526.78;4980515;28;45303;-92
2022/08/05 10:56:48;;;;;;;;;8.00;7.00;;;;;39.50;65.76;101518.00;4967459;28;45378;-94
2022/08/05 10:59:30;;;;;;;;;5.00;5.00;;;;;41.11;66.11;101500.53;4968839;28;47327;-96
2022/08/05 11:02:16;;;;;;;;;7.00;7.00;;;;;43.07;64.47;101526.06;4973414;28;45549;-94
2022/08/05 11:04:54;;;;;;;;;5.00;5.00;;;;;44.52;62.58;101553.59;4973266;28;45478;-96
2022/08/05 11:07:20;;;;;;;;;8.00;6.00;;;;;44.15;59.50;101572.38;4971034;28;44846;-96
2022/08/05 11:09:53;;;;;;;;;5.00;5.00;;;;;43.14;55.01;101582.56;4995830;28;45996;-96
2022/08/05 11:12:35;;;;;;;;;9.00;6.00;;;;;41.66;56.49;101590.22;4970312;28;45543;-95
2022/08/05 11:17:42;;;;;;;;;7.33;7.00;;;;;39.09;56.54;101594.72;4988056;28;45877;-95
2022/08/05 11:20:31;;;;;;;;;5.00;5.00;;;;;38.28;57.70;101573.94;4966523;28;46203;-96
2022/08/05 11:25:36;;;;;;;;;7.33;6.00;;;;;42.26;58.67;101577.50;5315475;22;44758;-96
2022/08/05 11:28:10;;;;;;;;;8.00;8.00;;;;;42.56;55.90;101603.66;4987662;28;44866;-95
2022/08/05 11:30:54;;;;;;;;;7.00;5.00;;;;;42.23;54.88;101606.19;4994774;28;46138;-95
2022/08/05 11:33:34;;;;;;;;;4.67;4.67;;;;;43.62;55.36;101590.66;4989136;28;45303;-96
2022/08/05 11:36:03;;;;;;;;;5.00;4.00;;;;;45.55;54.53;101604.50;4998179;28;44839;-94
2022/08/05 11:38:38;;;;;;;;;3.00;3.00;;;;;47.37;52.24;101609.53;5014596;28;45343;-96
2022/08/05 11:41:19;;;;;;;;;5.00;5.00;;;;;48.98;49.59;101625.59;4999628;28;47202;-96
2022/08/05 11:43:56;;;;;;;;;4.00;4.00;;;;;50.29;49.04;101622.59;5011766;28;45466;-96
2022/08/05 11:46:35;;;;;;;;;6.00;6.00;;;;;49.03;45.85;101627.88;4996141;28;46078;-95
2022/08/05 11:49:03;;;;;;;;;4.67;4.67;;;;;46.57;44.16;101620.03;4972604;28;45242;-96
2022/08/05 11:51:29;;;;;;;;;2.00;2.00;;;;;44.29;45.09;101636.72;4988143;28;45426;-94
2022/08/05 11:53:55;;;;;;;;;3.67;3.67;;;;;42.30;46.29;101625.88;4982311;28;45411;-93
2022/08/05 11:56:21;;;;;;;;;3.00;3.00;;;;;43.15;47.23;101622.97;4971640;28;45398;-92
2022/08/05 11:58:48;;;;;;;;;3.00;3.00;;;;;44.94;48.35;101624.66;4971422;28;45378;-94
2022/08/05 12:01:20;;;;;;;;;2.67;2.67;;;;;46.91;48.60;101626.94;5014543;28;45519;-94
2022/08/05 12:03:51;;;;;;;;;3.00;3.00;;;;;48.72;45.90;101626.47;5019803;28;45500;-93
2022/08/05 12:06:19;;;;;;;;;3.00;3.00;;;;;50.40;44.94;101613.91;4978353;28;45449;-92
2022/08/05 12:08:53;;;;;;;;;3.00;3.00;;;;;49.97;42.83;101622.44;5000735;28;45406;-93
2022/08/05 12:11:24;;;;;;;;;3.00;2.33;;;;;48.04;42.72;101635.28;5007825;28;46096;-94
2022/08/05 12:14:00;;;;;;;;;4.00;4.00;;;;;45.54;41.45;101636.88;5027071;28;45198;-91
2022/08/05 12:16:30;;;;;;;;;3.00;3.00;;;;;43.44;42.88;101633.53;5031126;28;44819;-92
2022/08/05 12:18:56;;;;;;;;;3.00;3.00;;;;;41.76;43.25;101637.22;5007177;28;45265;-91
2022/08/05 12:21:21;;;;;;;;;2.33;2.33;;;;;40.22;45.06;101635.03;4995189;28;45451;-93
2022/08/05 12:24:00;;;;;;;;;3.67;3.67;;;;;38.95;46.05;101644.97;4999912;28;45409;-92
2022/08/05 12:26:34;;;;;;;;;4.00;3.00;;;;;38.44;47.06;101627.88;4996250;28;45341;-92
2022/08/05 12:28:59;;;;;;;;;3.00;3.00;;;;;39.07;47.66;101633.22;4981584;28;45780;-93
2022/08/05 12:31:25;;;;;;;;;2.67;2.00;;;;;40.73;47.63;101627.06;4953351;28;47131;-92
2022/08/05 12:33:51;;;;;;;;;3.33;2.33;;;;;43.14;47.60;101626.75;4981155;28;45723;-92
2022/08/05 12:36:17;;;;;;;;;4.33;2.67;;;;;45.16;46.56;101627.38;4976399;28;45373;-92
2022/08/05 12:38:42;;;;;;;;;2.33;2.33;;;;;44.72;44.90;101629.34;4996454;28;45431;-93
2022/08/05 12:41:10;;;;;;;;;1.67;1.67;;;;;43.62;43.97;101641.28;4985318;28;47013;-91
2022/08/05 12:43:49;;;;;;;;;3.00;3.00;;;;;44.60;45.10;101642.38;4988685;28;45506;-93
2022/08/05 12:46:25;;;;;;;;;2.00;2.00;;;;;44.14;44.13;101652.72;4974448;28;46164;-94
2022/08/05 12:49:09;;;;;;;;;4.67;3.67;;;;;42.57;44.08;101665.25;4983367;28;45536;-94
2022/08/05 12:51:45;;;;;;;;;3.33;3.00;;;;;40.89;44.19;101653.50;4984946;28;46553;-95
2022/08/05 12:54:18;;;;;;;;;2.00;2.00;;;;;39.59;45.49;101656.56;4995210;28;45441;-94
2022/08/05 12:56:48;;;;;;;;;5.67;3.00;;;;;39.06;46.63;101655.28;4991231;28;45349;-93
2022/08/05 12:59:44;;;;;;;;;2.33;2.00;;;;;40.81;48.17;101654.03;4994446;28;45512;-94
2022/08/05 13:02:11;;;;;;;;;1.67;1.67;;;;;42.77;46.30;101656.28;4971918;28;46428;-93
2022/08/05 13:04:39;;;;;;;;;3.00;2.00;;;;;45.17;46.24;101654.97;4979342;28;45510;-92
2022/08/05 13:07:17;;;;;;;;;3.00;2.00;;;;;47.67;45.37;101650.19;4976605;28;45836;-92
2022/08/05 13:09:48;;;;;;;;;4.00;2.00;;;;;48.80;40.65;101670.19;4972261;28;45754;-92
2022/08/05 13:12:14;;;;;;;;;1.00;1.00;;;;;47.41;40.29;101666.56;4997069;28;45382;-93
2022/08/05 13:14:46;;;;;;;;;1.67;1.67;;;;;45.87;40.92;101663.53;4996157;28;45820;-93
2022/08/05 13:17:14;;;;;;;;;2.00;2.00;;;;;44.87;41.22;101665.00;5001320;28;45398;-93
2022/08/05 13:19:40;;;;;;;;;2.00;2.00;;;;;43.35;42.19;101664.66;4980584;28;45655;-92
2022/08/05 13:22:05;;;;;;;;;2.67;2.67;;;;;42.47;43.18;101656.81;4998968;28;46249;-95
2022/08/05 13:24:31;;;;;;;;;1.00;1.00;;;;;44.05;43.44;101658.03;4988642;28;45406;-94
2022/08/05 13:26:56;;;;;;;;;1.67;1.67;;;;;46.32;43.47;101658.47;4994468;28;45502;-94
2022/08/05 13:29:21;;;;;;;;;2.00;1.33;;;;;48.51;41.59;101663.88;4999779;28;45402;-95
2022/08/05 13:31:49;;;;;;;;;2.00;2.00;;;;;50.09;41.31;101662.03;5000802;28;45529;-95
2022/08/05 13:34:15;;;;;;;;;2.67;2.67;;;;;49.64;39.87;101667.81;4982450;28;45712;-95
2022/08/05 13:36:41;;;;;;;;;2.67;2.67;;;;;49.90;38.52;101666.00;4971828;28;45383;-95
2022/08/05 13:39:08;;;;;;;;;2.67;2.67;;;;;48.36;38.16;101668.28;4985843;28;45609;-94
2022/08/05 13:41:33;;;;;;;;;2.00;2.00;;;;;47.16;38.33;101663.47;4999304;28;46373;-95
2022/08/05 13:43:59;;;;;;;;;3.33;2.00;;;;;45.28;39.00;101661.41;5006190;28;45017;-96
2022/08/05 13:46:26;;;;;;;;;1.00;1.00;;;;;44.80;40.66;101664.63;4991944;28;45326;-92
2022/08/05 13:48:53;;;;;;;;;1.00;1.00;;;;;44.74;39.92;101665.19;5007562;28;45402;-92
2022/08/05 13:51:30;;;;;;;;;1.33;1.33;;;;;43.20;39.69;101669.53;5021002;28;45437;-92
2022/08/05 13:53:55;;;;;;;;;2.00;1.67;;;;;41.59;40.36;101663.28;4979828;28;45802;-96
2022/08/05 13:56:20;;;;;;;;;3.00;3.00;;;;;41.96;42.10;101677.06;4990002;28;45824;-94
2022/08/05 13:58:46;;;;;;;;;1.00;1.00;;;;;44.22;42.33;101672.34;5004699;28;53986;-93
2022/08/05 14:01:11;;;;;;;;;2.00;2.00;;;;;45.18;41.47;101678.84;4995497;28;45387;-95
2022/08/05 14:03:37;;;;;;;;;3.33;3.33;;;;;45.62;40.81;101672.19;5010942;28;45508;-96
2022/08/05 14:06:02;;;;;;;;;2.00;2.00;;;;;47.36;40.69;101666.13;4998239;28;44866;-95
2022/08/05 14:08:27;;;;;;;;;1.67;1.67;;;;;49.21;40.08;101685.41;4980256;28;45549;-94
2022/08/05 14:10:53;;;;;;;;;1.00;1.00;;;;;50.47;37.86;101675.47;5006311;28;47718;-94
2022/08/05 14:13:18;;;;;;;;;1.00;1.00;;;;;51.82;37.07;101687.13;5007902;28;44976;-95
2022/08/05 14:15:43;;;;;;;;;2.00;2.00;;;;;51.01;36.12;101675.03;4992212;28;46178;-92
2022/08/05 14:18:09;;;;;;;;;1.67;1.67;;;;;50.24;35.68;101675.28;5002251;28;45482;-96
2022/08/05 14:20:34;;;;;;;;;2.00;2.00;;;;;48.37;35.29;101681.16;4989559;28;45460;-94
2022/08/05 14:23:00;;;;;;;;;1.00;1.00;;;;;46.25;36.70;101677.59;4989485;28;45366;-95
2022/08/05 14:25:26;;;;;;;;;2.67;1.67;;;;;44.34;38.07;101681.47;5002533;28;45319;-95
2022/08/05 14:27:52;;;;;;;;;2.00;2.00;;;;;43.61;39.22;101680.97;4991865;28;45295;-95
2022/08/05 14:30:17;;;;;;;;;2.33;1.33;;;;;42.46;38.47;101682.63;4982012;28;46275;-96
2022/08/05 14:32:43;;;;;;;;;2.00;2.00;;;;;41.07;40.09;101683.44;4972750;28;45327;-93
2022/08/05 14:35:09;;;;;;;;;1.67;1.67;;;;;41.01;41.13;101682.00;4985711;28;45499;-96
2022/08/05 14:37:35;;;;;;;;;2.00;2.00;;;;;40.38;40.72;101683.50;5011605;28;45322;-96
2022/08/05 14:40:01;;;;;;;;;1.67;1.67;;;;;41.69;42.00;101686.41;4992719;28;48022;-96
2022/08/05 14:42:26;;;;;;;;;2.00;2.00;;;;;42.98;40.95;101669.41;5116799;22;45841;-94
2022/08/05 14:44:52;;;;;;;;;3.00;3.00;;;;;44.91;39.34;101684.94;5012444;28;44695;-93
2022/08/05 14:47:17;;;;;;;;;1.00;1.00;;;;;46.59;39.85;101675.41;5014103;28;45469;-94
2022/08/05 14:49:43;;;;;;;;;1.33;1.33;;;;;47.25;37.92;101674.66;5004706;28;45169;-96
2022/08/05 14:52:08;;;;;;;;;1.67;1.67;;;;;46.41;38.19;101667.81;4979687;28;45565;-91
2022/08/05 14:54:34;;;;;;;;;2.33;1.00;;;;;45.33;38.60;101673.81;4988833;28;45400;-92
2022/08/05 14:56:59;;;;;;;;;2.67;1.67;;;;;44.19;38.96;101673.47;5000110;28;45316;-91
2022/08/05 14:59:26;;;;;;;;;1.00;1.00;;;;;43.09;37.58;101674.03;4997528;28;45723;-95
2022/08/05 15:01:51;;;;;;;;;1.00;1.00;;;;;41.95;38.98;101685.47;4982165;28;45817;-92
2022/08/05 15:04:17;;;;;;;;;1.00;1.00;;;;;40.81;39.70;101676.03;4996306;28;45394;-92
2022/08/05 15:06:43;;;;;;;;;1.00;1.00;;;;;39.86;41.02;101675.91;5002743;28;45484;-95
2022/08/05 15:09:09;;;;;;;;;3.00;2.00;;;;;39.06;40.96;101674.47;4981223;28;47011;-94
2022/08/05 15:11:35;;;;;;;;;3.00;3.00;;;;;38.21;42.39;101671.22;4977297;28;45325;-91
2022/08/05 15:14:01;;;;;;;;;1.67;1.67;;;;;37.42;42.94;101688.38;4965339;28;45507;-94
2022/08/05 15:16:27;;;;;;;;;3.00;1.67;;;;;36.59;43.33;101692.59;4997464;28;45591;-94
2022/08/05 15:18:52;;;;;;;;;2.00;2.00;;;;;35.77;44.19;101696.47;4974876;28;46872;-94
2022/08/05 15:21:18;;;;;;;;;2.00;2.00;;;;;35.16;44.46;101691.00;4989898;28;45457;-92
2022/08/05 15:23:43;;;;;;;;;1.67;1.67;;;;;34.70;45.36;101684.75;4997282;28;45376;-93
2022/08/05 15:26:08;;;;;;;;;2.00;2.00;;;;;34.38;45.41;101687.00;4991898;28;45279;-91
2022/08/05 15:28:36;;;;;;;;;1.00;1.00;;;;;34.04;45.90;101690.13;5034268;28;47328;-94
2022/08/05 15:31:04;;;;;;;;;3.00;3.00;;;;;33.63;46.50;101699.78;5027594;28;45226;-96
2022/08/05 15:33:29;;;;;;;;;3.00;2.00;;;;;33.16;46.79;101684.25;5019041;28;45399;-92
2022/08/05 15:35:55;;;;;;;;;1.00;0.67;;;;;32.80;47.28;101701.78;4995756;28;45301;-94
2022/08/05 15:38:20;;;;;;;;;2.00;2.00;;;;;32.44;47.80;101696.59;5008087;28;46724;-94
2022/08/05 15:40:46;;;;;;;;;2.00;2.00;;;;;32.17;48.64;101690.19;4987652;28;45910;-95
2022/08/05 15:43:11;;;;;;;;;1.67;1.67;;;;;31.97;49.20;101689.84;4987044;28;45234;-94
2022/08/05 15:45:36;;;;;;;;;2.33;2.33;;;;;31.79;49.84;101696.72;4990202;28;45665;-92
2022/08/05 15:48:03;;;;;;;;;1.00;1.00;;;;;31.56;50.14;101685.63;4984204;28;48398;-94
2022/08/05 15:50:28;;;;;;;;;2.00;2.00;;;;;31.41;50.19;101688.72;4988982;28;45522;-92
2022/08/05 15:52:53;;;;;;;;;1.67;1.67;;;;;31.18;50.06;101687.56;5003485;28;45341;-94
2022/08/05 15:55:19;;;;;;;;;2.00;2.00;;;;;30.97;50.46;101695.31;5008064;28;58024;-95
2022/08/05 15:57:44;;;;;;;;;2.00;1.00;;;;;30.77;51.06;101697.56;4992108;28;48580;-94
2022/08/05 16:00:11;;;;;;;;;1.67;1.33;;;;;30.60;51.62;101697.09;5000359;28;45669;-92
2022/08/05 16:02:36;;;;;;;;;3.00;3.00;;;;;30.42;51.00;101700.22;4996290;28;45408;-93
2022/08/05 16:05:03;;;;;;;;;3.00;2.00;;;;;30.17;51.87;101689.94;4979787;28;45497;-93
2022/08/05 16:07:28;;;;;;;;;2.00;2.00;;;;;29.98;52.30;101693.06;4992597;28;49542;-92
2022/08/05 16:09:53;;;;;;;;;2.00;2.00;;;;;29.83;52.10;101713.22;4983102;28;45712;-94
2022/08/05 16:12:19;;;;;;;;;1.00;1.00;;;;;29.65;52.53;101701.81;4982649;28;45525;-92
2022/08/05 16:14:44;;;;;;;;;1.00;1.00;;;;;29.53;52.63;101702.94;4998896;28;45461;-93
2022/08/05 16:17:11;;;;;;;;;3.00;3.00;;;;;29.48;52.93;101707.56;4979132;28;47488;-95
2022/08/05 16:19:36;;;;;;;;;2.33;2.33;;;;;29.35;53.16;101704.22;4976250;28;45839;-93
2022/08/05 16:22:02;;;;;;;;;2.33;2.00;;;;;29.23;53.28;101708.03;4994698;28;45491;-93
2022/08/05 16:24:28;;;;;;;;;2.00;2.00;;;;;29.11;53.21;101707.34;4988107;28;45827;-94
2022/08/05 16:26:58;;;;;;;;;1.00;1.00;;;;;29.01;53.15;101705.69;4981075;28;48325;-93
2022/08/05 16:29:24;;;;;;;;;3.00;2.00;;;;;28.96;53.19;101712.97;4978194;28;45504;-94
2022/08/05 16:31:50;;;;;;;;;1.00;1.00;;;;;28.85;53.42;101713.16;4981038;28;45764;-93
2022/08/05 16:34:17;;;;;;;;;1.67;1.33;;;;;28.80;53.45;101726.72;5000532;28;45329;-95
2022/08/05 16:36:42;;;;;;;;;2.67;2.00;;;;;28.66;53.41;101708.94;4985098;28;48090;-92
2022/08/05 16:39:08;;;;;;;;;1.00;1.00;;;;;28.63;53.26;101721.59;4978425;28;45595;-94
2022/08/05 16:41:36;;;;;;;;;2.00;2.00;;;;;28.52;53.95;101713.66;4991287;28;46931;-93
2022/08/05 16:44:04;;;;;;;;;2.00;2.00;;;;;28.47;54.51;101719.16;4989102;28;45744;-92
2022/08/05 16:46:30;;;;;;;;;2.00;2.00;;;;;28.32;54.25;101712.13;4977929;28;47218;-93
2022/08/05 16:48:55;;;;;;;;;2.33;2.33;;;;;28.21;54.30;101725.75;4996179;28;45375;-94
2022/08/05 16:51:21;;;;;;;;;1.33;1.33;;;;;28.08;54.19;101722.34;4991449;28;45617;-95
2022/08/05 16:53:46;;;;;;;;;5.33;3.00;;;;;27.99;54.97;101726.03;4995681;28;45636;-94
2022/08/05 16:56:11;;;;;;;;;2.00;1.00;;;;;27.89;54.96;101725.25;4980524;28;47321;-95
2022/08/05 16:58:37;;;;;;;;;2.00;2.00;;;;;27.78;55.35;101722.69;4981897;28;45786;-95
2022/08/05 17:01:03;;;;;;;;;1.00;1.00;;;;;27.62;54.87;101713.88;5003030;28;45465;-93
2022/08/05 17:03:28;;;;;;;;;2.00;2.00;;;;;27.55;55.30;101718.41;4980480;28;45545;-93
2022/08/05 17:05:53;;;;;;;;;2.33;2.00;;;;;27.50;55.58;101714.88;4998157;28;46625;-92
2022/08/05 17:08:19;;;;;;;;;2.00;2.00;;;;;27.45;55.19;101720.31;4987082;28;46050;-92
2022/08/05 17:10:44;;;;;;;;;2.00;1.00;;;;;27.37;55.56;101716.84;4978994;28;45431;-92
2022/08/05 17:13:12;;;;;;;;;2.00;2.00;;;;;27.38;55.32;101724.00;4989354;28;45375;-95
2022/08/05 17:34:45;;;;;;;;;2.00;2.00;;;;;26.62;55.25;101756.88;5250029;22;45895;-96
2022/08/05 17:37:18;;;;;;;;;0.67;0.67;;;;;26.43;54.77;101743.53;5210162;22;46430;-96
2022/08/05 17:39:44;;;;;;;;;1.67;1.67;;;;;26.42;55.04;101755.16;5041567;22;45850;-96
2022/08/05 17:42:10;;;;;;;;;2.00;2.00;;;;;26.39;54.72;101760.56;5001566;28;45165;-96
2022/08/05 17:44:45;;;;;;;;;;;;;;;;;;;;;
2022/08/05 17:52:28;;;;;;;;;2.67;2.67;;;;;26.23;55.35;101759.75;4977122;28;44827;-96
2022/08/05 18:00:22;;;;;;;;;0.00;0.00;;;;;26.13;55.38;101784.91;5068509;22;44799;-96
2022/08/05 18:02:49;;;;;;;;;2.00;1.00;;;;;26.17;53.92;101805.50;5782573;22;46028;-96
2022/08/05 18:05:14;;;;;;;;;10.00;9.67;;;;;26.05;54.02;101790.31;5133983;22;50962;-96
2022/08/05 18:07:40;;;;;;;;;10.67;9.67;;;;;26.04;53.40;101801.97;4995482;28;46368;-94
2022/08/05 18:12:40;;;;;;;;;67.75;53.50;;;;;26.00;52.42;101830.69;5047772;22;45317;-93
2022/08/05 18:15:06;;;;;;;;;17.33;16.00;;;;;25.84;53.14;101805.59;5003701;28;45488;-96
2022/08/05 18:23:10;;;;;;;;;68.33;57.67;;;;;25.77;52.61;101845.06;6108214;22;45864;-96
2022/08/05 18:28:10;;;;;;;;;295.60;265.40;;;;;25.60;53.45;101828.91;5421621;22;46147;-96
2022/08/05 18:30:36;;;;;;;;;48.75;39.50;;;;;25.66;51.49;101854.00;5001406;28;44863;-96
2022/08/05 18:33:02;;;;;;;;;31.00;27.25;;;;;25.56;52.99;101845.03;4998844;28;45365;-95
2022/08/05 18:35:28;;;;;;;;;181.75;163.75;;;;;25.61;52.38;101868.34;5430596;22;45327;-96